Time;durP1;ratioP1;P1;durP2;ratioP2;P2;SDS_P1;SDS_P2;PMS_P1;PMS_P2;Temp;Humidity;BMP_temperature;BMP_pressure;BME280_temperature;BME280_humidity;BME280_pressure;Samples;Min_cycle;Max_cycle;Signal;HPM_P1;HPM_P2
2022/08/27 00:01:16;;;;;;;11.65;4.50;;;;;;;20.88;53.54;94293.28;4213175;28;20097;-70
2022/08/27 00:03:18;;;;;;;13.82;5.53;;;;;;;20.93;53.65;94297.91;4214922;28;20059;-71
2022/08/27 00:05:20;;;;;;;14.90;5.25;;;;;;;20.95;53.54;94303.81;4215898;28;20081;-72
2022/08/27 00:07:22;;;;;;;10.75;4.18;;;;;;;21.04;53.20;94291.78;4214409;28;20105;-72
2022/08/27 00:09:24;;;;;;;12.27;4.25;;;;;;;21.09;52.89;94291.88;4222001;27;20113;-76
2022/08/27 00:11:28;;;;;;;13.77;5.55;;;;;;;21.14;53.26;94291.97;4225456;27;20476;-71
2022/08/27 00:13:29;;;;;;;10.65;4.72;;;;;;;21.17;53.76;94288.88;4210310;28;20120;-72
2022/08/27 00:15:32;;;;;;;9.25;4.90;;;;;;;21.18;53.35;94287.81;4222737;28;20447;-72
2022/08/27 00:17:34;;;;;;;11.57;4.60;;;;;;;21.21;53.15;94290.03;4228433;28;20047;-71
2022/08/27 00:19:36;;;;;;;9.15;4.40;;;;;;;21.20;53.39;94288.38;4226968;28;20051;-72
2022/08/27 00:21:38;;;;;;;13.52;4.88;;;;;;;21.22;53.91;94288.97;4227738;28;20055;-73
2022/08/27 00:23:39;;;;;;;16.20;5.18;;;;;;;21.22;54.54;94277.50;4213378;28;20492;-73
2022/08/27 00:25:41;;;;;;;7.93;4.60;;;;;;;21.19;54.98;94281.44;4228233;28;20648;-71
2022/08/27 00:27:44;;;;;;;13.65;5.50;;;;;;;21.21;55.03;94279.38;4219130;28;20511;-73
2022/08/27 00:29:46;;;;;;;13.63;5.10;;;;;;;21.24;55.37;94286.06;4212981;28;20055;-72
2022/08/27 00:31:48;;;;;;;13.35;5.10;;;;;;;21.24;55.39;94278.88;4213795;28;20128;-73
2022/08/27 00:33:54;;;;;;;13.05;4.85;;;;;;;21.25;55.77;94274.34;4211796;28;20131;-71
2022/08/27 00:35:56;;;;;;;13.05;5.70;;;;;;;21.27;55.54;94273.09;4213236;28;20052;-72
2022/08/27 00:37:58;;;;;;;14.48;5.53;;;;;;;21.27;55.80;94273.09;4218689;28;20104;-71
2022/08/27 00:40:00;;;;;;;12.60;5.55;;;;;;;21.27;55.78;94278.44;4227526;28;20609;-72
2022/08/27 00:42:06;;;;;;;16.55;5.30;;;;;;;21.24;55.75;94278.88;4228006;28;20093;-71
2022/08/27 00:44:08;;;;;;;12.00;4.95;;;;;;;21.18;55.75;94274.50;4222384;28;20549;-73
2022/08/27 00:46:18;;;;;;;16.52;5.03;;;;;;;21.12;55.88;94278.09;4214732;28;20043;-71
2022/08/27 00:48:23;;;;;;;9.05;4.95;;;;;;;21.15;55.88;94279.50;4220562;28;20047;-72
2022/08/27 00:50:47;;;;;;;11.57;4.78;;;;;;;21.17;55.64;94285.41;4227041;28;20039;-73
2022/08/27 00:52:55;;;;;;;13.40;5.07;;;;;;;21.20;55.43;94282.25;4217563;28;20115;-73
2022/08/27 00:55:05;;;;;;;11.15;4.82;;;;;;;21.19;55.67;94281.44;4217152;28;20108;-71
2022/08/27 00:57:07;;;;;;;8.60;4.55;;;;;;;21.20;55.68;94284.91;4213396;28;20060;-71
2022/08/27 00:59:11;;;;;;;10.75;5.30;;;;;;;21.20;55.66;94272.41;4217675;28;20051;-72
2022/08/27 01:01:16;;;;;;;12.32;4.43;;;;;;;21.10;55.53;94277.53;4214056;28;20121;-70
2022/08/27 01:03:18;;;;;;;12.65;4.72;;;;;;;20.90;55.81;94275.25;4213713;28;20051;-73
2022/08/27 01:05:24;;;;;;;10.55;4.90;;;;;;;20.73;56.00;94275.13;4223504;28;20051;-71
2022/08/27 01:07:28;;;;;;;15.27;4.50;;;;;;;20.63;56.25;94282.91;4213540;28;20051;-71
2022/08/27 01:09:30;;;;;;;12.15;4.80;;;;;;;20.30;57.10;94281.56;4213844;28;20051;-72
2022/08/27 01:11:32;;;;;;;11.48;4.63;;;;;;;20.14;57.76;94284.91;4226934;28;20109;-70
2022/08/27 01:13:34;;;;;;;14.50;4.85;;;;;;;20.14;58.15;94280.38;4207388;28;20109;-71
2022/08/27 01:15:57;;;;;;;14.10;5.10;;;;;;;20.24;58.12;94274.50;4220703;28;20047;-71
2022/08/27 01:18:03;;;;;;;13.00;5.55;;;;;;;20.31;57.76;94271.75;4214369;28;20138;-73
2022/08/27 01:20:08;;;;;;;10.95;4.78;;;;;;;20.33;57.07;94270.47;4220451;28;20078;-70
2022/08/27 01:22:23;;;;;;;9.80;4.50;;;;;;;20.09;56.85;94272.28;4223699;28;20108;-73
2022/08/27 01:24:37;;;;;;;11.65;5.38;;;;;;;20.02;57.84;94271.56;4225925;28;20081;-73
2022/08/27 01:26:40;;;;;;;9.35;4.70;;;;;;;20.08;57.85;94283.16;4214012;28;20044;-72
2022/08/27 01:28:42;;;;;;;9.63;4.80;;;;;;;20.14;58.02;94274.28;4209099;28;20074;-72
2022/08/27 01:30:44;;;;;;;14.27;5.03;;;;;;;20.16;57.76;94277.50;4208194;28;20089;-71
2022/08/27 01:32:47;;;;;;;11.05;4.32;;;;;;;20.13;57.46;94273.44;4200557;28;20048;-72
2022/08/27 01:34:50;;;;;;;7.70;4.90;;;;;;;20.13;57.48;94268.13;4209479;28;20120;-72
2022/08/27 01:36:51;;;;;;;10.45;4.78;;;;;;;20.16;57.46;94278.31;4209231;28;20055;-72
2022/08/27 01:38:58;;;;;;;9.60;4.50;;;;;;;20.22;57.54;94282.72;4205148;28;20106;-61
2022/08/27 01:41:01;;;;;;;8.98;4.43;;;;;;;20.30;57.52;94273.59;4200429;28;20635;-61
2022/08/27 01:43:03;;;;;;;11.60;5.13;;;;;;;20.34;56.58;94277.41;4205533;28;20122;-61
2022/08/27 01:45:09;;;;;;;10.23;4.13;;;;;;;20.37;56.12;94276.97;4213509;28;20105;-60
2022/08/27 01:47:11;;;;;;;9.57;4.85;;;;;;;20.38;55.77;94281.22;4212116;28;20121;-60
2022/08/27 01:49:12;;;;;;;9.73;4.40;;;;;;;20.31;55.42;94279.72;4211925;28;20040;-61
2022/08/27 01:51:15;;;;;;;17.92;4.50;;;;;;;20.11;55.80;94280.88;4212100;28;20462;-60
2022/08/27 01:53:22;;;;;;;8.20;4.28;;;;;;;19.83;56.63;94286.78;4207560;28;20191;-61
2022/08/27 01:55:25;;;;;;;11.43;4.40;;;;;;;19.35;57.98;94282.28;4210209;28;20495;-60
2022/08/27 01:57:27;;;;;;;11.20;4.40;;;;;;;18.99;59.13;94284.75;4203539;28;20044;-61
2022/08/27 01:59:29;;;;;;;12.50;3.97;;;;;;;18.75;59.36;94289.03;4211774;28;20097;-61
2022/08/27 02:01:40;;;;;;;11.07;4.38;;;;;;;18.78;59.68;94291.28;4212976;28;20139;-61
2022/08/27 02:03:43;;;;;;;9.82;3.92;;;;;;;18.66;59.43;94289.53;4211597;28;20105;-62
2022/08/27 02:05:47;;;;;;;12.47;4.03;;;;;;;18.52;59.99;94292.31;4208362;28;20052;-59
2022/08/27 02:07:49;;;;;;;7.18;4.30;;;;;;;17.94;61.56;94285.44;4205652;28;20048;-61
2022/08/27 02:09:51;;;;;;;9.00;4.18;;;;;;;17.87;61.89;94292.59;4204654;28;20056;-60
2022/08/27 02:11:52;;;;;;;11.57;4.30;;;;;;;17.93;61.67;94293.59;4210343;28;20208;-62
2022/08/27 02:13:54;;;;;;;15.73;4.63;;;;;;;17.88;61.71;94288.94;4204197;28;20055;-60
2022/08/27 02:15:56;;;;;;;11.93;4.53;;;;;;;18.04;61.59;94286.78;4204032;28;20516;-61
2022/08/27 02:17:58;;;;;;;8.20;4.80;;;;;;;18.10;61.86;94292.03;4207084;28;20048;-60
2022/08/27 02:20:00;;;;;;;10.43;5.18;;;;;;;18.16;61.99;94295.69;4208001;28;20056;-63
2022/08/27 02:22:02;;;;;;;12.15;5.43;;;;;;;18.10;62.04;94296.53;4205040;28;20087;-61
2022/08/27 02:24:04;;;;;;;15.20;5.50;;;;;;;18.00;62.55;94291.69;4205154;28;20060;-60
2022/08/27 02:26:06;;;;;;;9.65;5.00;;;;;;;18.20;62.43;94292.38;4211029;28;20047;-62
2022/08/27 02:28:08;;;;;;;9.85;5.32;;;;;;;18.39;61.22;94295.91;4212107;28;20488;-59
2022/08/27 02:30:12;;;;;;;14.98;4.97;;;;;;;18.49;61.03;94298.06;4202017;28;20052;-62
2022/08/27 02:32:15;;;;;;;10.73;5.38;;;;;;;18.53;60.51;94295.78;4208177;28;20607;-60
2022/08/27 02:34:33;;;;;;;10.23;5.22;;;;;;;18.50;60.77;94294.38;4201062;28;20056;-61
2022/08/27 02:36:36;;;;;;;9.90;4.90;;;;;;;18.64;60.89;94295.06;4203831;28;20048;-61
2022/08/27 02:38:39;;;;;;;13.50;5.43;;;;;;;18.83;60.09;94302.03;4201037;28;20044;-62
2022/08/27 02:40:40;;;;;;;12.83;5.70;;;;;;;18.79;60.27;94306.16;4192979;28;20044;-60
2022/08/27 02:42:43;;;;;;;9.65;5.32;;;;;;;18.63;60.76;94301.41;4205265;28;20052;-61
2022/08/27 02:44:46;;;;;;;12.80;5.32;;;;;;;18.70;60.68;94310.09;4204140;28;20043;-62
2022/08/27 02:46:47;;;;;;;11.23;5.10;;;;;;;18.46;61.09;94313.59;4202621;28;20127;-64
2022/08/27 02:48:54;;;;;;;14.77;5.93;;;;;;;18.49;61.42;94311.31;4206436;28;20118;-60
2022/08/27 02:50:55;;;;;;;11.65;5.28;;;;;;;18.63;61.07;94312.03;4205836;28;20086;-59
2022/08/27 02:52:57;;;;;;;14.65;5.80;;;;;;;18.81;60.36;94309.41;4203425;28;20063;-62
2022/08/27 02:54:59;;;;;;;16.52;6.07;;;;;;;18.96;60.01;94306.41;4201796;28;20052;-61
2022/08/27 02:57:01;;;;;;;15.43;5.60;;;;;;;19.11;59.50;94306.03;4199644;28;20052;-61
2022/08/27 02:59:03;;;;;;;15.10;5.45;;;;;;;19.21;59.66;94308.19;4203858;28;20078;-62
2022/08/27 03:01:05;;;;;;;13.05;5.05;;;;;;;19.33;58.34;94306.41;4203167;28;20475;-61
2022/08/27 03:03:12;;;;;;;9.43;5.32;;;;;;;19.42;58.34;94301.59;4202887;28;20110;-61
2022/08/27 03:05:15;;;;;;;14.63;5.80;;;;;;;19.44;58.46;94313.63;4203300;28;20712;-61
2022/08/27 03:07:17;;;;;;;14.13;5.55;;;;;;;19.42;58.51;94310.41;4201494;28;20052;-60
2022/08/27 03:09:20;;;;;;;14.98;5.50;;;;;;;19.41;58.65;94310.59;4205476;28;20092;-60
2022/08/27 03:11:22;;;;;;;15.00;6.00;;;;;;;19.17;58.63;94310.47;4200101;28;20048;-61
2022/08/27 03:13:25;;;;;;;14.00;4.87;;;;;;;18.99;59.53;94315.75;4202171;28;20570;-71
2022/08/27 03:15:27;;;;;;;13.05;5.68;;;;;;;18.82;59.85;94320.84;4185647;28;20387;-75
2022/08/27 03:19:49;;;;;;;11.45;5.50;;;;;;;18.56;60.94;94319.22;4205259;28;20101;-72
2022/08/27 03:21:51;;;;;;;13.18;5.15;;;;;;;18.55;60.95;94322.91;4199865;28;20052;-71
2022/08/27 03:23:55;;;;;;;12.85;5.72;;;;;;;18.61;60.93;94317.53;4200428;28;20091;-72
2022/08/27 03:26:00;;;;;;;18.38;6.47;;;;;;;18.70;60.93;94318.06;4203173;28;20605;-70
2022/08/27 03:28:02;;;;;;;13.43;5.22;;;;;;;18.82;60.24;94326.97;4202154;28;20742;-60
2022/08/27 03:30:10;;;;;;;14.55;5.75;;;;;;;18.65;60.59;94323.22;4210927;28;20078;-72
2022/08/27 03:32:12;;;;;;;11.68;5.80;;;;;;;18.71;60.81;94324.97;4210210;28;20052;-71
2022/08/27 03:34:13;;;;;;;13.52;5.53;;;;;;;18.69;60.61;94324.41;4204433;28;20063;-71
2022/08/27 03:36:20;;;;;;;11.48;5.15;;;;;;;18.66;60.52;94327.50;4199726;28;20076;-73
2022/08/27 03:38:22;;;;;;;18.05;5.05;;;;;;;18.58;60.37;94335.72;4198715;28;20133;-72
2022/08/27 03:40:23;;;;;;;14.80;5.82;;;;;;;18.51;60.84;94337.63;4203698;28;20059;-71
2022/08/27 03:42:26;;;;;;;11.63;5.80;;;;;;;18.48;60.81;94330.13;4198005;28;20480;-71
2022/08/27 03:44:27;;;;;;;13.13;6.15;;;;;;;18.45;61.08;94328.69;4199680;28;20097;-71
2022/08/27 03:46:29;;;;;;;9.35;5.38;;;;;;;18.49;60.78;94332.53;4198043;28;20569;-71
2022/08/27 03:48:32;;;;;;;14.18;5.60;;;;;;;18.54;60.81;94326.56;4197150;28;20070;-74
2022/08/27 03:50:37;;;;;;;15.65;5.65;;;;;;;18.55;60.74;94328.22;4197850;28;20060;-72
2022/08/27 03:52:38;;;;;;;11.20;5.75;;;;;;;18.58;60.62;94335.72;4209218;28;20046;-70
2022/08/27 03:54:40;;;;;;;7.53;5.13;;;;;;;18.66;60.86;94332.78;4197749;28;20044;-72
2022/08/27 03:56:42;;;;;;;8.43;6.05;;;;;;;18.76;60.40;94333.13;4197156;28;20040;-72
2022/08/27 03:58:44;;;;;;;16.13;6.25;;;;;;;18.87;60.31;94338.78;4206837;28;20152;-72
2022/08/27 04:00:46;;;;;;;10.25;5.45;;;;;;;18.95;59.88;94330.50;4199027;28;20052;-71
2022/08/27 04:02:47;;;;;;;13.68;5.65;;;;;;;19.03;60.14;94336.34;4204477;28;20051;-73
2022/08/27 04:04:49;;;;;;;15.30;5.63;;;;;;;19.13;60.07;94335.84;4201335;28;20074;-72
2022/08/27 04:06:51;;;;;;;11.70;5.88;;;;;;;19.23;59.73;94341.47;4202053;28;20458;-74
2022/08/27 04:08:56;;;;;;;13.25;6.38;;;;;;;19.35;59.29;94341.50;4208847;28;20079;-72
2022/08/27 04:10:58;;;;;;;10.18;5.60;;;;;;;19.46;59.11;94347.94;4195523;28;20546;-72
2022/08/27 04:12:59;;;;;;;9.32;5.65;;;;;;;19.56;58.76;94347.41;4202215;28;20390;-71
2022/08/27 04:15:02;;;;;;;11.43;5.65;;;;;;;19.62;58.15;94344.69;4199541;28;20525;-73
2022/08/27 04:17:04;;;;;;;11.88;5.85;;;;;;;19.62;58.40;94347.34;4200756;28;20483;-75
2022/08/27 04:19:06;;;;;;;14.10;5.40;;;;;;;19.65;58.60;94346.88;4203373;28;20086;-72
2022/08/27 04:21:10;;;;;;;17.75;5.50;;;;;;;19.72;58.55;94349.47;4211351;28;20097;-72
2022/08/27 04:23:12;;;;;;;10.02;5.05;;;;;;;19.83;58.26;94347.91;4199714;28;20538;-72
2022/08/27 04:25:14;;;;;;;15.63;5.53;;;;;;;19.90;57.79;94347.84;4207513;28;20040;-72
2022/08/27 04:27:17;;;;;;;15.18;5.82;;;;;;;19.98;57.88;94352.81;4208299;28;20048;-74
2022/08/27 04:29:18;;;;;;;19.13;5.63;;;;;;;20.01;57.75;94355.03;4209137;28;20044;-72
2022/08/27 04:31:20;;;;;;;17.20;6.22;;;;;;;20.04;57.76;94354.56;4208297;28;20052;-71
2022/08/27 04:33:22;;;;;;;11.98;5.20;;;;;;;20.08;57.75;94355.75;4207283;28;20075;-71
2022/08/27 04:35:24;;;;;;;14.82;5.97;;;;;;;20.11;57.79;94354.47;4208237;28;20105;-73
2022/08/27 04:37:30;;;;;;;13.27;5.28;;;;;;;20.12;57.94;94358.78;4208289;28;20101;-71
2022/08/27 04:39:32;;;;;;;14.68;5.85;;;;;;;20.17;57.69;94350.91;4208219;28;20100;-73
2022/08/27 04:41:34;;;;;;;9.10;5.28;;;;;;;20.22;57.32;94353.72;4210895;28;20093;-72
2022/08/27 04:43:36;;;;;;;18.60;6.00;;;;;;;20.26;57.43;94352.22;4206908;28;20443;-72
2022/08/27 04:45:45;;;;;;;10.93;5.53;;;;;;;20.36;57.64;94354.31;4209732;28;20078;-74
2022/08/27 04:47:46;;;;;;;9.63;5.18;;;;;;;20.41;57.51;94354.44;4208356;28;20043;-73
2022/08/27 04:49:48;;;;;;;12.75;5.05;;;;;;;20.46;57.31;94350.06;4208151;28;20052;-71
2022/08/27 04:51:51;;;;;;;12.68;5.13;;;;;;;20.52;57.03;94348.34;4205689;28;20094;-73
2022/08/27 04:53:52;;;;;;;20.00;5.72;;;;;;;20.54;56.87;94348.94;4208542;28;20102;-72
2022/08/27 04:55:55;;;;;;;16.48;6.13;;;;;;;20.58;56.50;94354.63;4208517;28;20040;-74
2022/08/27 04:57:57;;;;;;;16.97;6.27;;;;;;;20.57;56.66;94355.66;4206405;28;20113;-71
2022/08/27 04:59:59;;;;;;;13.57;5.47;;;;;;;20.63;56.55;94360.88;4207492;28;20337;-71
2022/08/27 05:02:02;;;;;;;18.45;6.65;;;;;;;20.70;56.47;94358.13;4208138;28;20504;-72
2022/08/27 05:04:06;;;;;;;12.75;5.85;;;;;;;20.73;56.20;94357.66;4204458;28;20064;-71
2022/08/27 05:06:08;;;;;;;12.40;6.00;;;;;;;20.80;56.45;94362.84;4204982;28;20047;-72
2022/08/27 05:08:13;;;;;;;10.68;5.80;;;;;;;20.75;55.75;94366.22;4204061;28;20101;-71
2022/08/27 05:10:14;;;;;;;12.52;5.97;;;;;;;20.46;56.20;94366.03;4202135;28;20048;-73
2022/08/27 05:12:16;;;;;;;14.20;5.90;;;;;;;20.45;56.73;94372.38;4201924;28;20594;-71
2022/08/27 05:14:20;;;;;;;15.65;6.03;;;;;;;20.57;56.82;94364.47;4209781;28;20052;-74
2022/08/27 05:16:22;;;;;;;;;;;;;;;20.59;56.49;94369.56;4210928;28;20078;-72
2022/08/27 05:18:24;;;;;;;11.43;6.47;;;;;;;20.64;56.35;94369.69;4196312;28;19928;-69
2022/08/27 05:20:26;;;;;;;19.65;6.43;;;;;;;20.74;56.14;94371.78;4199210;28;20044;-73
2022/08/27 05:22:28;;;;;;;11.63;6.22;;;;;;;20.79;56.12;94372.69;4201238;28;20048;-73
2022/08/27 05:24:31;;;;;;;13.68;6.90;;;;;;;20.83;56.25;94373.88;4208453;28;20043;-69
2022/08/27 05:26:34;;;;;;;11.27;6.50;;;;;;;20.91;55.79;94374.56;4206422;28;20052;-70
2022/08/27 05:28:36;;;;;;;15.10;6.93;;;;;;;20.96;55.92;94380.81;4201371;28;20048;-70
2022/08/27 05:30:45;;;;;;;12.68;6.32;;;;;;;21.05;55.96;94381.28;4203926;28;20052;-69
2022/08/27 05:32:55;;;;;;;10.63;6.53;;;;;;;21.12;55.23;94383.81;4205807;28;20074;-71
2022/08/27 05:34:57;;;;;;;18.52;6.57;;;;;;;21.02;55.04;94374.56;4202181;28;20053;-68
2022/08/27 05:36:59;;;;;;;13.82;6.72;;;;;;;21.04;55.54;94377.00;4206491;28;20058;-68
2022/08/27 05:39:03;;;;;;;17.73;6.53;;;;;;;21.12;55.93;94379.31;4201116;28;20052;-69
2022/08/27 05:41:10;;;;;;;13.13;6.88;;;;;;;21.19;55.43;94377.34;4202217;28;20676;-69
2022/08/27 05:43:14;;;;;;;14.90;7.20;;;;;;;21.27;55.39;94381.50;4198060;28;20428;-68
2022/08/27 05:45:16;;;;;;;14.23;6.47;;;;;;;21.36;55.44;94381.94;4195682;28;20052;-68
2022/08/27 05:47:18;;;;;;;14.43;6.55;;;;;;;21.48;54.84;94382.78;4194593;28;20045;-69
2022/08/27 05:49:20;;;;;;;16.38;7.20;;;;;;;21.54;54.85;94379.19;4195104;28;20490;-71
2022/08/27 05:51:27;;;;;;;15.80;7.28;;;;;;;21.60;54.49;94377.44;4195553;28;20045;-69
2022/08/27 05:53:29;;;;;;;13.27;6.70;;;;;;;21.60;54.18;94378.25;4197245;28;20040;-69
2022/08/27 05:55:36;;;;;;;20.67;8.75;;;;;;;21.48;53.99;94385.44;4210840;28;20416;-68
2022/08/27 05:57:37;;;;;;;16.77;7.10;;;;;;;21.40;53.86;94389.25;4196152;28;20045;-71
2022/08/27 06:02:00;;;;;;;19.13;9.18;;;;;;;21.45;54.52;94381.41;4210525;28;20110;-66
2022/08/27 06:04:03;;;;;;;13.80;7.22;;;;;;;21.12;53.97;94386.50;4197325;28;20565;-64
2022/08/27 06:06:07;;;;;;;19.63;11.38;;;;;;;20.93;54.49;94381.28;4203961;28;20106;-65
2022/08/27 06:08:09;;;;;;;37.17;24.33;;;;;;;20.83;55.39;94383.72;4208280;28;20665;-62
2022/08/27 06:10:12;;;;;;;13.70;8.55;;;;;;;20.80;54.87;94386.81;4206917;28;20048;-67
2022/08/27 06:12:13;;;;;;;14.48;6.60;;;;;;;20.77;54.83;94388.09;4206114;28;20059;-62
2022/08/27 06:14:15;;;;;;;17.70;8.10;;;;;;;20.88;54.65;94388.34;4208285;28;20546;-60
2022/08/27 06:16:18;;;;;;;21.70;8.32;;;;;;;21.07;54.61;94393.31;4206992;28;20044;-64
2022/08/27 06:18:20;;;;;;;12.93;6.80;;;;;;;21.31;54.51;94387.97;4201179;28;20040;-65
2022/08/27 06:20:22;;;;;;;16.42;6.28;;;;;;;21.45;54.12;94396.59;4209855;28;20342;-66
2022/08/27 06:22:24;;;;;;;11.00;5.72;;;;;;;21.62;52.99;94400.16;4210603;28;20085;-68
2022/08/27 06:24:26;;;;;;;15.35;6.10;;;;;;;21.79;52.48;94396.72;4205119;28;20060;-68
2022/08/27 06:26:28;;;;;;;12.75;5.72;;;;;;;21.91;52.47;94394.84;4201647;28;20070;-68
2022/08/27 06:28:30;;;;;;;8.63;5.05;;;;;;;22.07;52.38;94391.44;4193976;28;20055;-68
2022/08/27 06:30:31;;;;;;;12.80;5.43;;;;;;;22.25;52.19;94393.13;4198704;28;20048;-66
2022/08/27 06:32:33;;;;;;;11.77;5.38;;;;;;;22.25;50.27;94400.31;4199771;28;20041;-67
2022/08/27 06:34:36;;;;;;;10.95;5.15;;;;;;;22.11;50.09;94396.28;4210242;28;20105;-67
2022/08/27 06:36:40;;;;;;;10.07;4.90;;;;;;;22.01;50.94;94395.06;4209542;28;20511;-71
2022/08/27 06:38:42;;;;;;;14.68;6.22;;;;;;;21.96;50.90;94392.31;4211325;28;20223;-67
2022/08/27 06:40:45;;;;;;;13.20;5.70;;;;;;;21.89;51.56;94391.59;4212690;28;20147;-68
2022/08/27 06:42:46;;;;;;;13.07;5.55;;;;;;;22.01;51.48;94400.38;4210476;28;20492;-67
2022/08/27 06:44:48;;;;;;;14.75;6.32;;;;;;;22.20;51.46;94395.69;4210750;28;20105;-70
2022/08/27 06:46:50;;;;;;;12.35;6.00;;;;;;;22.19;50.67;94394.03;4213329;28;20133;-68
2022/08/27 06:48:57;;;;;;;15.13;5.43;;;;;;;22.32;50.99;94390.31;4213487;28;20039;-62
2022/08/27 06:50:59;;;;;;;10.43;5.75;;;;;;;22.50;50.33;94386.63;4212732;28;20436;-67
2022/08/27 06:53:01;;;;;;;14.93;5.35;;;;;;;22.70;50.43;94386.16;4212357;28;20074;-65
2022/08/27 06:55:03;;;;;;;10.60;5.32;;;;;;;22.89;49.50;94384.88;4213310;28;20048;-65
2022/08/27 06:57:05;;;;;;;19.33;4.75;;;;;;;22.98;48.70;94382.59;4206472;28;20713;-64
2022/08/27 06:59:10;;;;;;;12.40;5.43;;;;;;;22.94;49.04;94381.47;4202770;28;20101;-63
2022/08/27 07:01:14;;;;;;;15.65;5.75;;;;;;;22.92;49.16;94383.56;4202595;28;20072;-64
2022/08/27 07:03:16;;;;;;;11.35;5.68;;;;;;;22.98;49.17;94381.78;4199057;28;20052;-61
2022/08/27 07:05:18;;;;;;;14.27;5.78;;;;;;;22.95;48.54;94387.59;4211546;28;20044;-62
2022/08/27 07:07:20;;;;;;;10.27;4.97;;;;;;;22.90;48.37;94385.66;4212192;28;20060;-61
2022/08/27 07:09:35;;;;;;;12.18;4.85;;;;;;;23.00;48.57;94380.53;4206008;28;20549;-61
2022/08/27 07:11:37;;;;;;;21.10;5.38;;;;;;;23.15;48.55;94384.47;4212728;28;20121;-64
2022/08/27 07:13:40;;;;;;;12.38;4.82;;;;;;;23.24;48.25;94386.47;4210375;28;20052;-62
2022/08/27 07:15:42;;;;;;;14.87;5.40;;;;;;;23.24;48.27;94375.78;4199841;28;20067;-63
2022/08/27 07:17:44;;;;;;;12.80;5.25;;;;;;;22.98;48.45;94384.47;4224908;27;20679;-63
2022/08/27 07:19:45;;;;;;;13.82;5.63;;;;;;;22.95;48.70;94383.09;4212928;28;20089;-64
2022/08/27 07:21:47;;;;;;;12.25;5.00;;;;;;;23.06;49.32;94379.56;4211125;28;20106;-62
2022/08/27 07:23:51;;;;;;;15.10;5.53;;;;;;;23.18;48.08;94382.09;4209228;28;20081;-63
2022/08/27 07:25:53;;;;;;;11.55;5.05;;;;;;;23.34;47.75;94387.66;4204573;28;20052;-64
2022/08/27 07:27:55;;;;;;;11.63;4.95;;;;;;;23.56;47.65;94385.06;4211645;28;20044;-63
2022/08/27 07:29:58;;;;;;;14.48;4.43;;;;;;;23.81;47.68;94379.22;4206345;28;20084;-65
2022/08/27 07:32:03;;;;;;;12.70;4.72;;;;;;;23.94;46.84;94384.22;4209980;28;20048;-60
2022/08/27 07:34:05;;;;;;;12.38;4.78;;;;;;;23.92;46.56;94389.81;4212526;28;20114;-63
2022/08/27 07:36:07;;;;;;;12.35;5.15;;;;;;;23.80;46.47;94391.00;4212566;28;20055;-63
2022/08/27 07:38:12;;;;;;;13.50;5.15;;;;;;;23.67;47.01;94394.81;4211123;28;20051;-63
2022/08/27 07:40:15;;;;;;;9.52;4.95;;;;;;;23.55;47.69;94400.25;4211126;28;20056;-63
2022/08/27 07:44:37;;;;;;;13.88;5.38;;;;;;;23.39;47.89;94387.75;4211276;28;20512;-64
2022/08/27 07:46:39;;;;;;;12.07;5.20;;;;;;;23.45;48.61;94392.94;4209086;28;20101;-64
2022/08/27 07:48:46;;;;;;;12.20;5.05;;;;;;;23.49;47.61;94399.41;4211937;28;20051;-64
2022/08/27 07:50:48;;;;;;;13.35;4.75;;;;;;;23.63;47.61;94394.50;4212334;28;20086;-63
2022/08/27 07:52:50;;;;;;;8.70;4.60;;;;;;;23.87;46.99;94397.75;4211351;28;20044;-65
2022/08/27 07:54:53;;;;;;;14.35;4.85;;;;;;;24.04;46.53;94395.00;4209907;28;20471;-64
2022/08/27 07:56:55;;;;;;;23.05;5.25;;;;;;;24.26;46.47;94396.84;4211176;28;20080;-61
2022/08/27 07:58:56;;;;;;;11.27;4.45;;;;;;;24.49;46.01;94399.25;4201028;28;20052;-62
2022/08/27 08:00:58;;;;;;;9.75;4.10;;;;;;;24.70;45.85;94391.44;4211514;28;20048;-65
2022/08/27 08:03:00;;;;;;;12.25;4.65;;;;;;;24.93;46.18;94396.44;4212290;28;20059;-62
2022/08/27 08:05:04;;;;;;;12.55;4.80;;;;;;;25.14;45.52;94393.91;4211789;28;20054;-62
2022/08/27 08:07:06;;;;;;;11.23;4.57;;;;;;;25.32;45.51;94392.72;4211260;28;20058;-62
2022/08/27 08:09:08;;;;;;;16.40;5.95;;;;;;;25.46;44.96;94387.72;4210685;28;20508;-65
2022/08/27 08:11:14;;;;;;;;;;;;;;;25.45;44.39;94391.47;4212628;28;20707;-69
2022/08/27 08:13:17;;;;;;;14.35;5.10;;;;;;;25.53;44.30;94393.63;4210741;28;19939;-65
2022/08/27 08:15:19;;;;;;;15.95;4.47;;;;;;;25.60;44.16;94388.88;4208576;28;20057;-66
2022/08/27 08:17:21;;;;;;;12.48;4.53;;;;;;;25.52;43.63;94387.47;4211363;28;20097;-65
2022/08/27 08:19:23;;;;;;;13.85;4.95;;;;;;;25.57;43.61;94392.06;4209891;28;20064;-66
2022/08/27 08:21:25;;;;;;;17.17;4.95;;;;;;;25.75;43.71;94388.13;4212162;28;20597;-67
2022/08/27 08:23:28;;;;;;;10.15;4.50;;;;;;;25.92;43.36;94380.72;4207615;28;20051;-66
2022/08/27 08:25:30;;;;;;;15.80;5.13;;;;;;;25.59;42.78;94386.44;4208719;28;20098;-62
2022/08/27 08:27:40;;;;;;;15.38;4.88;;;;;;;25.21;43.15;94383.81;4203832;28;20052;-65
2022/08/27 08:29:42;;;;;;;13.57;4.90;;;;;;;25.20;43.77;94387.56;4208671;28;20052;-64
2022/08/27 08:31:44;;;;;;;12.20;4.68;;;;;;;25.18;43.55;94386.16;4211630;28;20066;-66
2022/08/27 08:33:51;;;;;;;12.93;5.22;;;;;;;25.09;43.18;94375.13;4211197;28;20048;-65
2022/08/27 08:35:53;;;;;;;16.98;4.88;;;;;;;25.09;43.11;94383.16;4211464;28;20056;-67
2022/08/27 08:37:55;;;;;;;10.40;4.82;;;;;;;25.20;43.03;94379.50;4204648;28;20051;-66
2022/08/27 08:39:56;;;;;;;12.32;5.03;;;;;;;25.45;42.44;94378.06;4211533;28;20056;-68
2022/08/27 08:42:01;;;;;;;13.98;5.43;;;;;;;25.66;41.66;94382.47;4209121;28;20052;-70
2022/08/27 08:44:10;;;;;;;15.65;5.22;;;;;;;25.91;42.08;94383.66;4201075;28;20052;-65
2022/08/27 08:46:21;;;;;;;13.05;5.25;;;;;;;26.20;41.85;94385.91;4207307;28;20063;-67
2022/08/27 08:48:25;;;;;;;10.70;4.50;;;;;;;26.46;41.60;94384.09;4205865;28;20046;-70
2022/08/27 08:50:36;;;;;;;11.18;5.18;;;;;;;26.69;40.53;94382.81;4206200;28;20040;-68
2022/08/27 08:52:58;;;;;;;14.57;5.05;;;;;;;26.84;39.68;94376.63;4208708;28;20085;-66
2022/08/27 08:55:20;;;;;;;13.00;4.57;;;;;;;27.02;39.21;94375.28;4209073;28;20048;-68
2022/08/27 08:57:27;;;;;;;11.88;5.13;;;;;;;27.15;39.50;94374.75;4202641;28;20054;-69
2022/08/27 08:59:34;;;;;;;10.82;4.15;;;;;;;27.13;38.11;94366.94;4209454;28;20496;-64
2022/08/27 09:01:35;;;;;;;14.13;4.25;;;;;;;27.25;38.48;94373.94;4204266;28;20052;-66
2022/08/27 09:03:40;;;;;;;10.93;4.00;;;;;;;27.39;38.54;94372.31;4197283;28;20060;-66
2022/08/27 09:05:48;;;;;;;12.57;4.47;;;;;;;27.57;39.43;94377.09;4207202;28;20129;-66
2022/08/27 09:08:08;;;;;;;16.77;4.20;;;;;;;27.73;39.29;94374.38;4204405;28;20188;-63
2022/08/27 09:10:52;;;;;;;14.65;4.30;;;;;;;27.94;37.84;94370.56;4201185;28;20043;-63
2022/08/27 09:12:58;;;;;;;14.32;4.60;;;;;;;28.03;37.32;94367.28;4197308;28;20051;-65
2022/08/27 09:15:19;;;;;;;11.15;4.28;;;;;;;28.13;36.58;94368.03;4193922;28;20048;-60
2022/08/27 09:17:34;;;;;;;11.32;4.10;;;;;;;28.23;36.52;94361.00;4203700;28;20052;-62
2022/08/27 09:19:36;;;;;;;12.77;5.13;;;;;;;28.21;35.64;94366.66;4206229;28;20495;-62
2022/08/27 09:21:49;;;;;;;13.30;3.95;;;;;;;27.85;36.13;94365.97;4208617;28;20109;-64
2022/08/27 09:24:16;;;;;;;14.10;4.55;;;;;;;27.74;36.10;94366.00;4206196;28;20052;-62
2022/08/27 09:26:24;;;;;;;12.02;4.03;;;;;;;27.64;36.31;94359.84;4209830;28;20067;-66
2022/08/27 09:30:48;;;;;;;8.60;3.72;;;;;;;28.00;35.57;94357.88;4213401;28;20048;-65
2022/08/27 09:32:59;;;;;;;10.38;3.83;;;;;;;28.21;35.72;94360.47;4200616;28;20059;-69
2022/08/27 09:35:07;;;;;;;9.25;3.80;;;;;;;28.38;35.40;94355.50;4208180;28;20059;-66
2022/08/27 09:37:11;;;;;;;10.82;4.28;;;;;;;28.54;35.10;94354.34;4199161;28;20132;-64
2022/08/27 09:39:13;;;;;;;14.57;4.20;;;;;;;28.69;34.69;94352.63;4205682;28;20044;-66
2022/08/27 09:41:21;;;;;;;10.55;4.22;;;;;;;28.80;34.60;94354.16;4208814;28;20056;-65
2022/08/27 09:43:27;;;;;;;13.95;3.97;;;;;;;28.85;34.55;94359.53;4215145;28;20035;-65
2022/08/27 09:45:29;;;;;;;7.22;4.00;;;;;;;28.85;34.17;94350.63;4213062;28;20131;-67
2022/08/27 09:47:40;;;;;;;7.93;3.95;;;;;;;28.90;34.31;94350.59;4210152;28;20062;-69